Portada
METAR-TAF:

METAR-TAF

Aeroports :

Aomori, Japó

latitud: 40-44N, longitud: 140-42E, altitud: 199 m

Observació

L'informe es va fer fa 6 hores i 57 minuts, a les 12:00 UTC
Vent 9 kt del Sud-Oest
Temperatura 24°C
Humitat 78%
Pressió 1006 hPa
Visibilitat 10 km o més
Escasses núvols a una alçada de 3000 ft
Cel ennuvolat

METAR: RJSA 151200Z 23009KT 9999 FEW030 BKN/// 24/20 Q1006

Hora: 03:57 (18:57 UTC)

Pronòstic

L'informe es va fer fa 1 hora i 52 minuts, a les 17:05 UTC
Pronòstic vàlid del 15 a les 18 UTC al 17 a les 00 UTC
Vent 5 kt del Sud/Sud-Oest
Visibilitat 10 km o més
Escasses núvols a una alçada de 3000 ft
Evolucionant progressivament
l' 15 a les 23 UTC al 16 a les 01 UTC
Vent 10 kt del Oest
Evolucionant progressivament
l' 16 a les 09 UTC al 16 a les 12 UTC
Vent 8 kt del Sud/Sud-Oest

TAF: RJSA 151705Z 1518/1700 21005KT 9999 FEW030 BECMG 1523/1601 27010KT BECMG 1609/1612 21008KT

Observacions i pronòstics meteorològics de més de 4000 aeroports (METAR i TAF).

Les estacions disponibles són els punts grocs i vermells al mapa.

Posi el ratolí al punt desitjat per veure el nom de l'estació.

Feu clic per veure les observacions i els pronòstics meteorològics.

Per canviar el mapa: feu clic els botons verds amb una creu de color negre per apropar; al botó verd amb un guió per allunyar la imatge; o en les fletxes verdes per a mapes adjacents.


METAR-TAF: